sensor_id;sensor_type;location;lat;lon;timestamp;P1;durP1;ratioP1;P2;durP2;ratioP2
19402;SDS011;9837;48.888;8.998;2022-12-18T06:01:50;47.53;;;23.70;;
19402;SDS011;9837;48.888;8.998;2022-12-18T06:04:16;38.33;;;15.90;;
19402;SDS011;9837;48.888;8.998;2022-12-18T06:06:42;40.63;;;17.97;;
19402;SDS011;9837;48.888;8.998;2022-12-18T06:09:08;31.47;;;15.90;;
19402;SDS011;9837;48.888;8.998;2022-12-18T06:11:38;34.30;;;16.83;;
19402;SDS011;9837;48.888;8.998;2022-12-18T06:14:05;31.13;;;15.40;;
19402;SDS011;9837;48.888;8.998;2022-12-18T06:16:31;34.33;;;16.33;;
19402;SDS011;9837;48.888;8.998;2022-12-18T06:19:00;37.93;;;21.07;;
19402;SDS011;9837;48.888;8.998;2022-12-18T06:21:28;39.63;;;18.50;;
19402;SDS011;9837;48.888;8.998;2022-12-18T06:23:54;33.27;;;15.80;;
19402;SDS011;9837;48.888;8.998;2022-12-18T06:26:19;38.00;;;19.10;;
19402;SDS011;9837;48.888;8.998;2022-12-18T06:28:45;28.57;;;14.43;;
19402;SDS011;9837;48.888;8.998;2022-12-18T06:31:11;33.83;;;16.27;;
19402;SDS011;9837;48.888;8.998;2022-12-18T06:33:37;37.60;;;16.20;;
19402;SDS011;9837;48.888;8.998;2022-12-18T06:36:07;29.13;;;15.40;;
19402;SDS011;9837;48.888;8.998;2022-12-18T06:38:35;31.87;;;17.63;;
19402;SDS011;9837;48.888;8.998;2022-12-18T06:41:06;31.67;;;16.53;;
19402;SDS011;9837;48.888;8.998;2022-12-18T06:43:36;31.70;;;16.37;;
19402;SDS011;9837;48.888;8.998;2022-12-18T06:46:02;31.53;;;17.17;;
19402;SDS011;9837;48.888;8.998;2022-12-18T06:48:28;33.40;;;16.33;;
19402;SDS011;9837;48.888;8.998;2022-12-18T06:50:55;33.30;;;15.63;;
19402;SDS011;9837;48.888;8.998;2022-12-18T06:53:21;26.47;;;15.87;;
19402;SDS011;9837;48.888;8.998;2022-12-18T06:55:47;34.63;;;16.47;;
19402;SDS011;9837;48.888;8.998;2022-12-18T06:58:13;31.83;;;13.47;;
19402;SDS011;9837;48.888;8.998;2022-12-18T07:00:38;28.70;;;16.53;;
19402;SDS011;9837;48.888;8.998;2022-12-18T07:03:04;35.27;;;15.90;;
19402;SDS011;9837;48.888;8.998;2022-12-18T07:05:30;35.00;;;17.60;;
19402;SDS011;9837;48.888;8.998;2022-12-18T07:07:55;34.87;;;16.43;;
19402;SDS011;9837;48.888;8.998;2022-12-18T07:10:21;30.23;;;16.90;;
19402;SDS011;9837;48.888;8.998;2022-12-18T07:12:47;36.37;;;16.80;;
19402;SDS011;9837;48.888;8.998;2022-12-18T07:15:13;37.63;;;17.80;;
19402;SDS011;9837;48.888;8.998;2022-12-18T07:17:38;33.73;;;16.97;;
19402;SDS011;9837;48.888;8.998;2022-12-18T07:20:04;30.00;;;15.73;;
19402;SDS011;9837;48.888;8.998;2022-12-18T07:22:30;32.57;;;16.90;;
19402;SDS011;9837;48.888;8.998;2022-12-18T07:24:56;40.47;;;17.23;;
19402;SDS011;9837;48.888;8.998;2022-12-18T07:27:22;31.27;;;16.40;;
19402;SDS011;9837;48.888;8.998;2022-12-18T07:29:48;27.90;;;15.93;;
19402;SDS011;9837;48.888;8.998;2022-12-18T07:32:13;31.67;;;16.43;;
19402;SDS011;9837;48.888;8.998;2022-12-18T07:34:39;29.07;;;14.80;;
19402;SDS011;9837;48.888;8.998;2022-12-18T07:37:05;33.30;;;15.63;;
19402;SDS011;9837;48.888;8.998;2022-12-18T07:39:31;32.60;;;16.37;;
19402;SDS011;9837;48.888;8.998;2022-12-18T07:41:57;37.73;;;16.73;;
19402;SDS011;9837;48.888;8.998;2022-12-18T07:44:42;33.60;;;15.97;;
19402;SDS011;9837;48.888;8.998;2022-12-18T07:47:07;33.60;;;17.43;;
19402;SDS011;9837;48.888;8.998;2022-12-18T07:49:33;27.77;;;16.67;;
19402;SDS011;9837;48.888;8.998;2022-12-18T07:51:59;34.27;;;16.10;;
19402;SDS011;9837;48.888;8.998;2022-12-18T07:54:25;25.00;;;16.43;;
19402;SDS011;9837;48.888;8.998;2022-12-18T07:56:51;27.57;;;14.30;;
19402;SDS011;9837;48.888;8.998;2022-12-18T07:59:17;31.63;;;16.80;;
19402;SDS011;9837;48.888;8.998;2022-12-18T08:01:43;30.63;;;16.43;;
19402;SDS011;9837;48.888;8.998;2022-12-18T08:04:09;30.97;;;15.83;;
19402;SDS011;9837;48.888;8.998;2022-12-18T08:06:35;40.63;;;16.70;;
19402;SDS011;9837;48.888;8.998;2022-12-18T08:09:01;35.63;;;16.80;;
19402;SDS011;9837;48.888;8.998;2022-12-18T08:11:27;43.53;;;19.80;;
19402;SDS011;9837;48.888;8.998;2022-12-18T08:13:54;34.70;;;18.23;;
19402;SDS011;9837;48.888;8.998;2022-12-18T08:16:20;36.50;;;18.00;;
19402;SDS011;9837;48.888;8.998;2022-12-18T08:18:46;33.43;;;15.37;;
19402;SDS011;9837;48.888;8.998;2022-12-18T08:21:14;29.50;;;17.30;;
19402;SDS011;9837;48.888;8.998;2022-12-18T08:23:46;30.47;;;15.73;;
19402;SDS011;9837;48.888;8.998;2022-12-18T08:26:12;31.80;;;16.60;;
19402;SDS011;9837;48.888;8.998;2022-12-18T08:28:38;37.73;;;18.47;;
19402;SDS011;9837;48.888;8.998;2022-12-18T08:31:04;39.60;;;17.77;;
19402;SDS011;9837;48.888;8.998;2022-12-18T08:33:30;38.17;;;18.97;;
19402;SDS011;9837;48.888;8.998;2022-12-18T08:35:57;37.50;;;17.20;;
19402;SDS011;9837;48.888;8.998;2022-12-18T08:38:23;31.13;;;17.13;;
19402;SDS011;9837;48.888;8.998;2022-12-18T08:40:49;32.43;;;16.23;;
19402;SDS011;9837;48.888;8.998;2022-12-18T08:43:15;28.77;;;14.77;;
19402;SDS011;9837;48.888;8.998;2022-12-18T08:45:59;26.53;;;13.23;;
19402;SDS011;9837;48.888;8.998;2022-12-18T08:48:25;32.37;;;15.43;;
19402;SDS011;9837;48.888;8.998;2022-12-18T08:50:58;27.57;;;16.37;;
19402;SDS011;9837;48.888;8.998;2022-12-18T08:53:24;35.67;;;16.93;;
19402;SDS011;9837;48.888;8.998;2022-12-18T08:55:51;32.53;;;17.87;;
19402;SDS011;9837;48.888;8.998;2022-12-18T08:58:16;30.57;;;16.47;;
19402;SDS011;9837;48.888;8.998;2022-12-18T09:00:42;28.40;;;17.47;;
19402;SDS011;9837;48.888;8.998;2022-12-18T09:03:12;27.90;;;14.00;;
19402;SDS011;9837;48.888;8.998;2022-12-18T09:05:42;39.50;;;20.13;;
19402;SDS011;9837;48.888;8.998;2022-12-18T09:08:08;31.87;;;17.57;;
19402;SDS011;9837;48.888;8.998;2022-12-18T09:10:34;31.83;;;16.30;;
19402;SDS011;9837;48.888;8.998;2022-12-18T09:13:06;35.50;;;18.37;;
19402;SDS011;9837;48.888;8.998;2022-12-18T09:15:32;40.60;;;19.17;;
19402;SDS011;9837;48.888;8.998;2022-12-18T09:17:58;32.17;;;17.70;;
19402;SDS011;9837;48.888;8.998;2022-12-18T09:20:23;37.73;;;19.63;;
19402;SDS011;9837;48.888;8.998;2022-12-18T09:22:49;33.47;;;18.27;;
19402;SDS011;9837;48.888;8.998;2022-12-18T09:25:15;30.33;;;15.20;;
19402;SDS011;9837;48.888;8.998;2022-12-18T09:27:41;31.80;;;16.37;;
19402;SDS011;9837;48.888;8.998;2022-12-18T09:30:07;38.90;;;17.57;;
19402;SDS011;9837;48.888;8.998;2022-12-18T09:32:33;28.33;;;18.13;;
19402;SDS011;9837;48.888;8.998;2022-12-18T09:34:58;41.17;;;17.90;;
19402;SDS011;9837;48.888;8.998;2022-12-18T09:37:24;29.27;;;15.13;;
19402;SDS011;9837;48.888;8.998;2022-12-18T09:39:50;35.17;;;18.10;;
19402;SDS011;9837;48.888;8.998;2022-12-18T09:42:24;33.47;;;18.13;;
19402;SDS011;9837;48.888;8.998;2022-12-18T09:44:51;35.27;;;18.10;;
19402;SDS011;9837;48.888;8.998;2022-12-18T09:47:23;38.40;;;17.60;;
19402;SDS011;9837;48.888;8.998;2022-12-18T09:49:58;39.43;;;18.70;;
19402;SDS011;9837;48.888;8.998;2022-12-18T09:52:35;33.77;;;16.80;;
19402;SDS011;9837;48.888;8.998;2022-12-18T09:55:05;37.83;;;17.73;;
19402;SDS011;9837;48.888;8.998;2022-12-18T09:57:55;34.27;;;19.43;;
19402;SDS011;9837;48.888;8.998;2022-12-18T10:00:25;34.90;;;18.27;;
19402;SDS011;9837;48.888;8.998;2022-12-18T10:02:52;40.40;;;20.20;;
19402;SDS011;9837;48.888;8.998;2022-12-18T10:05:33;35.53;;;19.17;;
19402;SDS011;9837;48.888;8.998;2022-12-18T10:08:20;43.50;;;17.97;;
19402;SDS011;9837;48.888;8.998;2022-12-18T10:10:52;39.43;;;19.17;;
19402;SDS011;9837;48.888;8.998;2022-12-18T10:21:04;34.57;;;16.97;;
19402;SDS011;9837;48.888;8.998;2022-12-18T10:23:50;33.00;;;17.53;;
19402;SDS011;9837;48.888;8.998;2022-12-18T10:26:28;32.93;;;16.57;;
19402;SDS011;9837;48.888;8.998;2022-12-18T10:28:56;31.90;;;16.37;;
19402;SDS011;9837;48.888;8.998;2022-12-18T10:31:23;36.93;;;18.57;;
19402;SDS011;9837;48.888;8.998;2022-12-18T10:33:50;38.60;;;18.73;;
19402;SDS011;9837;48.888;8.998;2022-12-18T10:36:18;36.20;;;18.20;;
19402;SDS011;9837;48.888;8.998;2022-12-18T10:38:44;32.33;;;17.10;;
19402;SDS011;9837;48.888;8.998;2022-12-18T10:46:37;37.70;;;17.20;;
19402;SDS011;9837;48.888;8.998;2022-12-18T10:49:03;32.33;;;18.33;;
19402;SDS011;9837;48.888;8.998;2022-12-18T10:54:05;36.60;;;17.73;;
19402;SDS011;9837;48.888;8.998;2022-12-18T10:56:38;38.87;;;18.03;;
19402;SDS011;9837;48.888;8.998;2022-12-18T10:59:14;35.53;;;19.00;;
19402;SDS011;9837;48.888;8.998;2022-12-18T11:04:16;39.53;;;16.47;;
19402;SDS011;9837;48.888;8.998;2022-12-18T11:09:29;39.47;;;18.87;;
19402;SDS011;9837;48.888;8.998;2022-12-18T11:12:01;37.53;;;18.20;;
19402;SDS011;9837;48.888;8.998;2022-12-18T11:14:45;38.13;;;18.03;;
19402;SDS011;9837;48.888;8.998;2022-12-18T11:19:44;33.80;;;16.87;;
19402;SDS011;9837;48.888;8.998;2022-12-18T11:22:20;36.27;;;19.50;;
19402;SDS011;9837;48.888;8.998;2022-12-18T11:27:22;38.70;;;19.07;;
19402;SDS011;9837;48.888;8.998;2022-12-18T11:29:49;34.57;;;16.90;;
19402;SDS011;9837;48.888;8.998;2022-12-18T11:32:27;42.97;;;18.73;;
19402;SDS011;9837;48.888;8.998;2022-12-18T11:35:17;34.87;;;16.43;;
19402;SDS011;9837;48.888;8.998;2022-12-18T11:37:56;30.83;;;16.80;;
19402;SDS011;9837;48.888;8.998;2022-12-18T11:40:38;32.13;;;16.80;;
19402;SDS011;9837;48.888;8.998;2022-12-18T11:43:11;33.60;;;17.70;;
19402;SDS011;9837;48.888;8.998;2022-12-18T11:45:56;35.43;;;17.40;;
19402;SDS011;9837;48.888;8.998;2022-12-18T11:48:35;34.77;;;17.43;;
19402;SDS011;9837;48.888;8.998;2022-12-18T11:51:23;34.30;;;17.70;;
19402;SDS011;9837;48.888;8.998;2022-12-18T11:53:57;35.23;;;17.17;;
19402;SDS011;9837;48.888;8.998;2022-12-18T11:56:28;38.63;;;18.83;;
19402;SDS011;9837;48.888;8.998;2022-12-18T11:59:09;35.90;;;16.90;;
19402;SDS011;9837;48.888;8.998;2022-12-18T12:09:57;32.33;;;15.80;;
19402;SDS011;9837;48.888;8.998;2022-12-18T12:15:22;34.83;;;18.27;;
19402;SDS011;9837;48.888;8.998;2022-12-18T12:21:26;31.27;;;16.67;;
19402;SDS011;9837;48.888;8.998;2022-12-18T12:29:50;38.27;;;18.33;;
19402;SDS011;9837;48.888;8.998;2022-12-18T12:38:05;37.23;;;18.90;;
19402;SDS011;9837;48.888;8.998;2022-12-18T12:40:44;34.97;;;17.17;;
19402;SDS011;9837;48.888;8.998;2022-12-18T12:46:11;38.50;;;16.83;;
19402;SDS011;9837;48.888;8.998;2022-12-18T12:48:42;34.43;;;16.63;;
19402;SDS011;9837;48.888;8.998;2022-12-18T12:51:10;34.23;;;16.77;;
19402;SDS011;9837;48.888;8.998;2022-12-18T12:53:43;34.57;;;16.60;;
19402;SDS011;9837;48.888;8.998;2022-12-18T12:56:12;35.50;;;16.20;;
19402;SDS011;9837;48.888;8.998;2022-12-18T13:07:51;38.00;;;17.13;;
19402;SDS011;9837;48.888;8.998;2022-12-18T13:10:35;33.63;;;17.10;;
19402;SDS011;9837;48.888;8.998;2022-12-18T13:13:11;34.33;;;17.20;;
19402;SDS011;9837;48.888;8.998;2022-12-18T13:18:32;32.97;;;15.80;;
19402;SDS011;9837;48.888;8.998;2022-12-18T13:21:12;37.20;;;16.80;;
19402;SDS011;9837;48.888;8.998;2022-12-18T13:30:57;35.80;;;17.70;;
19402;SDS011;9837;48.888;8.998;2022-12-18T13:33:44;36.83;;;16.67;;
19402;SDS011;9837;48.888;8.998;2022-12-18T13:46:48;33.50;;;17.47;;
19402;SDS011;9837;48.888;8.998;2022-12-18T13:59:09;31.03;;;15.90;;
19402;SDS011;9837;48.888;8.998;2022-12-18T14:02:25;44.50;;;19.03;;
19402;SDS011;9837;48.888;8.998;2022-12-18T14:08:46;39.13;;;15.57;;
19402;SDS011;9837;48.888;8.998;2022-12-18T14:14:41;37.80;;;16.20;;
19402;SDS011;9837;48.888;8.998;2022-12-18T14:21:27;34.17;;;16.20;;
19402;SDS011;9837;48.888;8.998;2022-12-18T14:27:37;30.87;;;16.40;;
19402;SDS011;9837;48.888;8.998;2022-12-18T14:30:33;31.30;;;15.57;;
19402;SDS011;9837;48.888;8.998;2022-12-18T14:33:03;29.83;;;14.40;;
19402;SDS011;9837;48.888;8.998;2022-12-18T14:35:31;33.53;;;16.27;;
19402;SDS011;9837;48.888;8.998;2022-12-18T14:38:10;34.43;;;17.60;;
19402;SDS011;9837;48.888;8.998;2022-12-18T14:40:51;34.57;;;16.20;;
19402;SDS011;9837;48.888;8.998;2022-12-18T14:43:31;40.17;;;17.33;;
19402;SDS011;9837;48.888;8.998;2022-12-18T14:46:02;34.97;;;17.20;;
19402;SDS011;9837;48.888;8.998;2022-12-18T14:48:48;36.20;;;17.10;;
19402;SDS011;9837;48.888;8.998;2022-12-18T14:51:21;34.43;;;16.77;;
19402;SDS011;9837;48.888;8.998;2022-12-18T14:53:52;38.97;;;19.73;;
19402;SDS011;9837;48.888;8.998;2022-12-18T14:56:35;40.80;;;16.87;;
19402;SDS011;9837;48.888;8.998;2022-12-18T14:59:15;38.33;;;18.53;;
19402;SDS011;9837;48.888;8.998;2022-12-18T15:04:27;35.33;;;16.57;;
19402;SDS011;9837;48.888;8.998;2022-12-18T15:07:38;34.37;;;18.03;;
19402;SDS011;9837;48.888;8.998;2022-12-18T15:12:42;37.57;;;18.50;;
19402;SDS011;9837;48.888;8.998;2022-12-18T15:23:18;42.43;;;17.87;;
19402;SDS011;9837;48.888;8.998;2022-12-18T15:25:47;38.67;;;17.93;;
19402;SDS011;9837;48.888;8.998;2022-12-18T15:28:21;39.97;;;18.17;;
19402;SDS011;9837;48.888;8.998;2022-12-18T15:33:37;38.77;;;17.83;;
19402;SDS011;9837;48.888;8.998;2022-12-18T15:36:07;32.17;;;16.20;;
19402;SDS011;9837;48.888;8.998;2022-12-18T15:38:35;41.77;;;19.03;;
19402;SDS011;9837;48.888;8.998;2022-12-18T15:41:01;36.67;;;17.43;;
19402;SDS011;9837;48.888;8.998;2022-12-18T15:43:27;40.77;;;17.37;;
19402;SDS011;9837;48.888;8.998;2022-12-18T15:46:17;39.77;;;18.40;;
19402;SDS011;9837;48.888;8.998;2022-12-18T15:48:46;40.37;;;20.60;;
19402;SDS011;9837;48.888;8.998;2022-12-18T15:51:29;38.70;;;18.13;;
19402;SDS011;9837;48.888;8.998;2022-12-18T15:54:02;53.27;;;20.80;;
19402;SDS011;9837;48.888;8.998;2022-12-18T15:56:29;55.23;;;20.87;;
19402;SDS011;9837;48.888;8.998;2022-12-18T15:59:15;44.30;;;20.80;;
19402;SDS011;9837;48.888;8.998;2022-12-18T16:01:43;46.73;;;19.17;;
19402;SDS011;9837;48.888;8.998;2022-12-18T16:04:11;49.23;;;20.77;;
19402;SDS011;9837;48.888;8.998;2022-12-18T16:06:39;40.60;;;18.97;;
19402;SDS011;9837;48.888;8.998;2022-12-18T16:09:06;39.00;;;19.23;;
19402;SDS011;9837;48.888;8.998;2022-12-18T16:11:32;42.13;;;20.90;;
19402;SDS011;9837;48.888;8.998;2022-12-18T16:14:23;51.83;;;21.60;;
19402;SDS011;9837;48.888;8.998;2022-12-18T16:19:26;46.90;;;21.03;;
19402;SDS011;9837;48.888;8.998;2022-12-18T16:22:23;42.00;;;18.93;;
19402;SDS011;9837;48.888;8.998;2022-12-18T16:24:55;43.77;;;19.13;;
19402;SDS011;9837;48.888;8.998;2022-12-18T16:27:35;43.50;;;19.13;;
19402;SDS011;9837;48.888;8.998;2022-12-18T16:30:02;38.60;;;18.33;;
19402;SDS011;9837;48.888;8.998;2022-12-18T16:32:30;40.53;;;18.40;;
19402;SDS011;9837;48.888;8.998;2022-12-18T16:35:00;40.37;;;20.07;;
19402;SDS011;9837;48.888;8.998;2022-12-18T16:37:29;44.27;;;20.10;;
19402;SDS011;9837;48.888;8.998;2022-12-18T16:40:04;34.80;;;17.57;;
19402;SDS011;9837;48.888;8.998;2022-12-18T16:42:34;37.60;;;16.67;;
19402;SDS011;9837;48.888;8.998;2022-12-18T16:45:01;41.47;;;20.77;;
19402;SDS011;9837;48.888;8.998;2022-12-18T16:47:27;48.93;;;18.23;;
19402;SDS011;9837;48.888;8.998;2022-12-18T16:49:56;41.43;;;19.93;;
19402;SDS011;9837;48.888;8.998;2022-12-18T16:53:07;37.40;;;18.60;;
19402;SDS011;9837;48.888;8.998;2022-12-18T16:56:36;34.30;;;17.57;;
19402;SDS011;9837;48.888;8.998;2022-12-18T17:00:10;37.33;;;18.43;;
19402;SDS011;9837;48.888;8.998;2022-12-18T17:02:39;42.50;;;19.40;;
19402;SDS011;9837;48.888;8.998;2022-12-18T17:08:24;42.13;;;21.23;;
19402;SDS011;9837;48.888;8.998;2022-12-18T17:10:50;44.97;;;22.17;;
19402;SDS011;9837;48.888;8.998;2022-12-18T17:13:16;45.53;;;21.90;;
19402;SDS011;9837;48.888;8.998;2022-12-18T17:16:11;39.77;;;20.67;;
19402;SDS011;9837;48.888;8.998;2022-12-18T17:18:43;43.73;;;20.30;;
19402;SDS011;9837;48.888;8.998;2022-12-18T17:21:10;42.47;;;18.47;;
19402;SDS011;9837;48.888;8.998;2022-12-18T17:23:39;37.17;;;19.53;;
19402;SDS011;9837;48.888;8.998;2022-12-18T17:26:06;47.30;;;20.57;;
19402;SDS011;9837;48.888;8.998;2022-12-18T17:28:35;40.67;;;20.20;;
19402;SDS011;9837;48.888;8.998;2022-12-18T17:31:09;54.83;;;21.70;;
19402;SDS011;9837;48.888;8.998;2022-12-18T17:33:46;38.17;;;19.47;;
19402;SDS011;9837;48.888;8.998;2022-12-18T17:36:16;35.73;;;17.03;;
19402;SDS011;9837;48.888;8.998;2022-12-18T17:38:43;36.13;;;18.20;;
19402;SDS011;9837;48.888;8.998;2022-12-18T17:41:09;36.37;;;17.17;;
19402;SDS011;9837;48.888;8.998;2022-12-18T17:43:41;36.80;;;17.40;;
19402;SDS011;9837;48.888;8.998;2022-12-18T17:46:15;41.83;;;18.93;;
19402;SDS011;9837;48.888;8.998;2022-12-18T17:48:42;39.90;;;18.20;;
19402;SDS011;9837;48.888;8.998;2022-12-18T17:51:09;47.67;;;19.20;;
19402;SDS011;9837;48.888;8.998;2022-12-18T17:53:36;36.83;;;18.73;;
19402;SDS011;9837;48.888;8.998;2022-12-18T17:56:03;44.73;;;20.13;;
19402;SDS011;9837;48.888;8.998;2022-12-18T17:58:30;42.20;;;20.03;;
19402;SDS011;9837;48.888;8.998;2022-12-18T18:01:00;41.50;;;19.30;;
19402;SDS011;9837;48.888;8.998;2022-12-18T18:03:32;49.47;;;20.80;;
19402;SDS011;9837;48.888;8.998;2022-12-18T18:06:03;44.63;;;19.83;;
19402;SDS011;9837;48.888;8.998;2022-12-18T18:08:32;44.50;;;19.97;;
19402;SDS011;9837;48.888;8.998;2022-12-18T18:11:06;54.13;;;21.17;;
19402;SDS011;9837;48.888;8.998;2022-12-18T18:13:54;35.57;;;19.73;;
19402;SDS011;9837;48.888;8.998;2022-12-18T18:16:34;38.23;;;19.17;;
19402;SDS011;9837;48.888;8.998;2022-12-18T18:19:05;43.13;;;19.93;;
19402;SDS011;9837;48.888;8.998;2022-12-18T18:21:39;52.17;;;20.80;;
19402;SDS011;9837;48.888;8.998;2022-12-18T18:24:08;44.03;;;20.53;;
19402;SDS011;9837;48.888;8.998;2022-12-18T18:26:38;49.87;;;23.43;;
19402;SDS011;9837;48.888;8.998;2022-12-18T18:31:48;40.40;;;20.57;;
19402;SDS011;9837;48.888;8.998;2022-12-18T18:34:22;35.57;;;18.93;;
19402;SDS011;9837;48.888;8.998;2022-12-18T18:36:53;44.57;;;20.50;;
19402;SDS011;9837;48.888;8.998;2022-12-18T18:39:20;49.20;;;21.43;;
19402;SDS011;9837;48.888;8.998;2022-12-18T18:41:50;52.97;;;21.13;;
19402;SDS011;9837;48.888;8.998;2022-12-18T18:44:16;45.90;;;21.40;;
19402;SDS011;9837;48.888;8.998;2022-12-18T18:46:48;42.53;;;20.50;;
19402;SDS011;9837;48.888;8.998;2022-12-18T18:49:15;43.83;;;20.87;;
19402;SDS011;9837;48.888;8.998;2022-12-18T18:51:44;49.93;;;21.57;;
19402;SDS011;9837;48.888;8.998;2022-12-18T18:54:13;40.30;;;19.90;;
19402;SDS011;9837;48.888;8.998;2022-12-18T18:56:41;45.10;;;20.67;;
19402;SDS011;9837;48.888;8.998;2022-12-18T18:59:07;46.87;;;21.30;;
19402;SDS011;9837;48.888;8.998;2022-12-18T19:01:33;46.23;;;22.13;;
19402;SDS011;9837;48.888;8.998;2022-12-18T19:04:00;55.57;;;23.07;;
19402;SDS011;9837;48.888;8.998;2022-12-18T19:06:29;41.77;;;20.93;;
19402;SDS011;9837;48.888;8.998;2022-12-18T19:08:59;49.20;;;21.20;;
19402;SDS011;9837;48.888;8.998;2022-12-18T19:11:31;41.50;;;21.93;;
19402;SDS011;9837;48.888;8.998;2022-12-18T19:14:15;46.70;;;21.17;;
19402;SDS011;9837;48.888;8.998;2022-12-18T19:16:45;40.87;;;18.57;;
19402;SDS011;9837;48.888;8.998;2022-12-18T19:19:14;53.53;;;22.73;;
19402;SDS011;9837;48.888;8.998;2022-12-18T19:21:44;46.83;;;20.07;;
19402;SDS011;9837;48.888;8.998;2022-12-18T19:24:10;46.70;;;20.53;;
19402;SDS011;9837;48.888;8.998;2022-12-18T19:26:37;45.37;;;20.20;;
19402;SDS011;9837;48.888;8.998;2022-12-18T19:29:07;45.93;;;21.93;;
19402;SDS011;9837;48.888;8.998;2022-12-18T19:31:35;42.03;;;21.03;;
19402;SDS011;9837;48.888;8.998;2022-12-18T19:34:01;45.40;;;22.53;;
19402;SDS011;9837;48.888;8.998;2022-12-18T19:36:29;46.83;;;21.87;;
19402;SDS011;9837;48.888;8.998;2022-12-18T19:38:59;47.87;;;22.37;;
19402;SDS011;9837;48.888;8.998;2022-12-18T19:41:25;51.33;;;23.50;;
19402;SDS011;9837;48.888;8.998;2022-12-18T19:43:52;58.40;;;24.43;;
19402;SDS011;9837;48.888;8.998;2022-12-18T19:46:19;54.20;;;24.43;;
19402;SDS011;9837;48.888;8.998;2022-12-18T19:48:46;45.43;;;21.03;;
19402;SDS011;9837;48.888;8.998;2022-12-18T19:51:14;43.60;;;22.40;;
19402;SDS011;9837;48.888;8.998;2022-12-18T19:53:40;48.80;;;23.17;;
19402;SDS011;9837;48.888;8.998;2022-12-18T19:56:06;46.53;;;22.97;;
19402;SDS011;9837;48.888;8.998;2022-12-18T19:58:33;47.13;;;21.97;;
19402;SDS011;9837;48.888;8.998;2022-12-18T20:00:59;50.60;;;21.40;;
19402;SDS011;9837;48.888;8.998;2022-12-18T20:03:26;47.53;;;21.10;;
19402;SDS011;9837;48.888;8.998;2022-12-18T20:05:52;46.20;;;20.37;;
19402;SDS011;9837;48.888;8.998;2022-12-18T20:08:18;47.03;;;22.10;;
19402;SDS011;9837;48.888;8.998;2022-12-18T20:10:44;46.57;;;21.67;;
19402;SDS011;9837;48.888;8.998;2022-12-18T20:13:13;47.90;;;22.30;;
19402;SDS011;9837;48.888;8.998;2022-12-18T20:15:40;49.47;;;20.97;;
19402;SDS011;9837;48.888;8.998;2022-12-18T20:18:05;41.50;;;21.37;;
19402;SDS011;9837;48.888;8.998;2022-12-18T20:20:33;41.40;;;21.30;;
19402;SDS011;9837;48.888;8.998;2022-12-18T20:23:00;46.73;;;19.47;;
19402;SDS011;9837;48.888;8.998;2022-12-18T20:25:26;40.67;;;21.53;;
19402;SDS011;9837;48.888;8.998;2022-12-18T20:27:51;46.13;;;21.60;;
19402;SDS011;9837;48.888;8.998;2022-12-18T20:30:17;45.13;;;19.93;;
19402;SDS011;9837;48.888;8.998;2022-12-18T20:32:43;49.20;;;22.63;;
19402;SDS011;9837;48.888;8.998;2022-12-18T20:35:09;73.70;;;31.00;;
19402;SDS011;9837;48.888;8.998;2022-12-18T20:37:35;44.43;;;22.13;;
19402;SDS011;9837;48.888;8.998;2022-12-18T20:40:00;54.43;;;24.30;;
19402;SDS011;9837;48.888;8.998;2022-12-18T20:42:26;49.67;;;22.47;;
19402;SDS011;9837;48.888;8.998;2022-12-18T20:44:52;43.73;;;20.27;;
19402;SDS011;9837;48.888;8.998;2022-12-18T20:47:18;43.43;;;21.03;;
19402;SDS011;9837;48.888;8.998;2022-12-18T20:49:43;46.70;;;23.27;;
19402;SDS011;9837;48.888;8.998;2022-12-18T20:52:09;52.80;;;22.87;;
19402;SDS011;9837;48.888;8.998;2022-12-18T20:54:35;50.37;;;22.13;;
19402;SDS011;9837;48.888;8.998;2022-12-18T20:57:00;43.70;;;22.87;;
19402;SDS011;9837;48.888;8.998;2022-12-18T20:59:26;49.83;;;23.53;;
19402;SDS011;9837;48.888;8.998;2022-12-18T21:01:52;56.57;;;24.77;;
19402;SDS011;9837;48.888;8.998;2022-12-18T21:04:18;46.77;;;20.90;;
19402;SDS011;9837;48.888;8.998;2022-12-18T21:06:43;54.57;;;24.40;;
19402;SDS011;9837;48.888;8.998;2022-12-18T21:09:09;45.00;;;22.30;;
19402;SDS011;9837;48.888;8.998;2022-12-18T21:11:35;45.57;;;23.20;;
19402;SDS011;9837;48.888;8.998;2022-12-18T21:14:21;46.43;;;22.30;;
19402;SDS011;9837;48.888;8.998;2022-12-18T21:16:49;51.83;;;23.07;;
19402;SDS011;9837;48.888;8.998;2022-12-18T21:19:16;47.83;;;23.63;;
19402;SDS011;9837;48.888;8.998;2022-12-18T21:21:43;49.10;;;23.43;;
19402;SDS011;9837;48.888;8.998;2022-12-18T21:24:09;56.57;;;24.63;;
19402;SDS011;9837;48.888;8.998;2022-12-18T21:26:35;50.60;;;24.27;;
19402;SDS011;9837;48.888;8.998;2022-12-18T21:29:03;58.37;;;24.37;;
19402;SDS011;9837;48.888;8.998;2022-12-18T21:31:32;53.57;;;23.67;;
19402;SDS011;9837;48.888;8.998;2022-12-18T21:33:59;63.10;;;25.07;;
19402;SDS011;9837;48.888;8.998;2022-12-18T21:36:26;55.17;;;24.20;;
19402;SDS011;9837;48.888;8.998;2022-12-18T21:38:52;55.07;;;25.33;;
19402;SDS011;9837;48.888;8.998;2022-12-18T21:41:18;57.10;;;24.20;;
19402;SDS011;9837;48.888;8.998;2022-12-18T21:44:03;53.67;;;24.03;;
19402;SDS011;9837;48.888;8.998;2022-12-18T21:46:35;50.60;;;23.13;;
19402;SDS011;9837;48.888;8.998;2022-12-18T21:49:02;52.23;;;25.03;;
19402;SDS011;9837;48.888;8.998;2022-12-18T21:51:30;53.30;;;25.70;;
19402;SDS011;9837;48.888;8.998;2022-12-18T21:53:56;57.90;;;24.60;;
19402;SDS011;9837;48.888;8.998;2022-12-18T21:56:22;47.97;;;22.20;;
19402;SDS011;9837;48.888;8.998;2022-12-18T21:58:48;62.70;;;25.57;;
19402;SDS011;9837;48.888;8.998;2022-12-18T22:01:15;50.50;;;22.57;;
19402;SDS011;9837;48.888;8.998;2022-12-18T22:03:42;48.73;;;22.60;;
19402;SDS011;9837;48.888;8.998;2022-12-18T22:06:09;50.97;;;22.33;;
19402;SDS011;9837;48.888;8.998;2022-12-18T22:08:35;48.93;;;22.93;;
19402;SDS011;9837;48.888;8.998;2022-12-18T22:11:01;49.47;;;23.03;;
19402;SDS011;9837;48.888;8.998;2022-12-18T22:13:27;44.80;;;22.97;;
19402;SDS011;9837;48.888;8.998;2022-12-18T22:15:53;51.23;;;23.30;;
19402;SDS011;9837;48.888;8.998;2022-12-18T22:18:18;47.87;;;22.47;;
19402;SDS011;9837;48.888;8.998;2022-12-18T22:20:45;48.40;;;22.33;;
19402;SDS011;9837;48.888;8.998;2022-12-18T22:23:11;49.50;;;25.47;;
19402;SDS011;9837;48.888;8.998;2022-12-18T22:25:37;52.40;;;23.50;;
19402;SDS011;9837;48.888;8.998;2022-12-18T22:28:03;54.70;;;24.27;;
19402;SDS011;9837;48.888;8.998;2022-12-18T22:30:47;49.80;;;25.00;;
19402;SDS011;9837;48.888;8.998;2022-12-18T22:33:13;56.90;;;23.97;;
19402;SDS011;9837;48.888;8.998;2022-12-18T22:35:38;51.53;;;23.20;;
19402;SDS011;9837;48.888;8.998;2022-12-18T22:38:04;49.77;;;23.07;;
19402;SDS011;9837;48.888;8.998;2022-12-18T22:40:30;53.93;;;24.60;;
19402;SDS011;9837;48.888;8.998;2022-12-18T22:42:56;47.93;;;22.10;;
19402;SDS011;9837;48.888;8.998;2022-12-18T22:45:22;49.07;;;21.93;;
19402;SDS011;9837;48.888;8.998;2022-12-18T22:47:49;50.97;;;22.23;;
19402;SDS011;9837;48.888;8.998;2022-12-18T22:50:14;45.97;;;22.13;;
19402;SDS011;9837;48.888;8.998;2022-12-18T22:52:40;51.63;;;24.03;;
19402;SDS011;9837;48.888;8.998;2022-12-18T22:55:06;53.43;;;22.83;;
19402;SDS011;9837;48.888;8.998;2022-12-18T22:57:32;51.10;;;22.63;;
19402;SDS011;9837;48.888;8.998;2022-12-18T22:59:57;45.73;;;22.20;;
